sensor_id;sensor_type;location;lat;lon;timestamp;P1;durP1;ratioP1;P2;durP2;ratioP2
51780;SDS011;37844;57.126;24.288;2023-06-26T00:01:42;18.33;;;4.53;;
51780;SDS011;37844;57.126;24.288;2023-06-26T00:04:26;8.50;;;4.20;;
51780;SDS011;37844;57.126;24.288;2023-06-26T00:07:11;14.25;;;4.32;;
51780;SDS011;37844;57.126;24.288;2023-06-26T00:09:55;9.30;;;4.57;;
51780;SDS011;37844;57.126;24.288;2023-06-26T00:12:39;9.20;;;5.30;;
51780;SDS011;37844;57.126;24.288;2023-06-26T00:15:23;16.50;;;6.07;;
51780;SDS011;37844;57.126;24.288;2023-06-26T00:18:07;8.52;;;4.53;;
51780;SDS011;37844;57.126;24.288;2023-06-26T00:20:52;12.00;;;5.45;;
51780;SDS011;37844;57.126;24.288;2023-06-26T00:23:36;8.40;;;4.57;;
51780;SDS011;37844;57.126;24.288;2023-06-26T00:26:20;15.98;;;5.18;;
51780;SDS011;37844;57.126;24.288;2023-06-26T00:29:04;11.48;;;4.68;;
51780;SDS011;37844;57.126;24.288;2023-06-26T00:31:48;8.27;;;4.38;;
51780;SDS011;37844;57.126;24.288;2023-06-26T00:34:32;11.35;;;4.22;;
51780;SDS011;37844;57.126;24.288;2023-06-26T00:37:16;12.55;;;4.88;;
51780;SDS011;37844;57.126;24.288;2023-06-26T00:40:00;12.27;;;4.25;;
51780;SDS011;37844;57.126;24.288;2023-06-26T00:42:45;15.55;;;3.90;;
51780;SDS011;37844;57.126;24.288;2023-06-26T00:45:29;7.40;;;3.47;;
51780;SDS011;37844;57.126;24.288;2023-06-26T00:48:13;8.98;;;3.97;;
51780;SDS011;37844;57.126;24.288;2023-06-26T00:50:57;13.10;;;3.92;;
51780;SDS011;37844;57.126;24.288;2023-06-26T00:53:41;8.48;;;3.85;;
51780;SDS011;37844;57.126;24.288;2023-06-26T00:56:26;7.65;;;4.13;;
51780;SDS011;37844;57.126;24.288;2023-06-26T00:59:12;10.00;;;4.65;;
51780;SDS011;37844;57.126;24.288;2023-06-26T01:01:55;7.60;;;4.20;;
51780;SDS011;37844;57.126;24.288;2023-06-26T01:04:39;8.73;;;4.57;;
51780;SDS011;37844;57.126;24.288;2023-06-26T01:07:30;10.93;;;4.57;;
51780;SDS011;37844;57.126;24.288;2023-06-26T01:10:15;7.10;;;4.30;;
51780;SDS011;37844;57.126;24.288;2023-06-26T01:13:00;11.20;;;4.15;;
51780;SDS011;37844;57.126;24.288;2023-06-26T01:15:44;10.30;;;5.68;;
51780;SDS011;37844;57.126;24.288;2023-06-26T01:18:28;18.77;;;6.30;;
51780;SDS011;37844;57.126;24.288;2023-06-26T01:21:13;10.93;;;5.90;;
51780;SDS011;37844;57.126;24.288;2023-06-26T01:24:04;9.23;;;6.45;;
51780;SDS011;37844;57.126;24.288;2023-06-26T01:27:03;10.15;;;7.00;;
51780;SDS011;37844;57.126;24.288;2023-06-26T01:29:49;9.15;;;4.60;;
51780;SDS011;37844;57.126;24.288;2023-06-26T01:32:34;10.60;;;4.22;;
51780;SDS011;37844;57.126;24.288;2023-06-26T01:35:18;10.32;;;4.78;;
51780;SDS011;37844;57.126;24.288;2023-06-26T01:38:16;12.07;;;5.75;;
51780;SDS011;37844;57.126;24.288;2023-06-26T01:41:02;9.07;;;5.75;;
51780;SDS011;37844;57.126;24.288;2023-06-26T01:47:00;11.00;;;5.57;;
51780;SDS011;37844;57.126;24.288;2023-06-26T01:49:50;11.63;;;5.60;;
51780;SDS011;37844;57.126;24.288;2023-06-26T01:53:04;10.63;;;6.13;;
51780;SDS011;37844;57.126;24.288;2023-06-26T01:56:03;11.55;;;5.50;;
51780;SDS011;37844;57.126;24.288;2023-06-26T01:58:51;9.48;;;6.00;;
51780;SDS011;37844;57.126;24.288;2023-06-26T02:01:39;9.85;;;5.57;;
51780;SDS011;37844;57.126;24.288;2023-06-26T02:04:23;13.13;;;6.85;;
51780;SDS011;37844;57.126;24.288;2023-06-26T02:07:07;19.40;;;6.95;;
51780;SDS011;37844;57.126;24.288;2023-06-26T02:09:53;10.73;;;5.72;;
51780;SDS011;37844;57.126;24.288;2023-06-26T02:12:38;9.50;;;6.50;;
51780;SDS011;37844;57.126;24.288;2023-06-26T02:15:23;10.32;;;6.85;;
51780;SDS011;37844;57.126;24.288;2023-06-26T02:18:06;14.07;;;7.10;;
51780;SDS011;37844;57.126;24.288;2023-06-26T02:20:50;15.75;;;7.93;;
51780;SDS011;37844;57.126;24.288;2023-06-26T02:23:34;11.45;;;8.15;;
51780;SDS011;37844;57.126;24.288;2023-06-26T02:26:18;13.48;;;8.55;;
51780;SDS011;37844;57.126;24.288;2023-06-26T02:29:03;11.68;;;7.93;;
51780;SDS011;37844;57.126;24.288;2023-06-26T02:31:47;12.95;;;8.18;;
51780;SDS011;37844;57.126;24.288;2023-06-26T02:34:31;11.43;;;8.38;;
51780;SDS011;37844;57.126;24.288;2023-06-26T02:37:16;12.50;;;8.20;;
51780;SDS011;37844;57.126;24.288;2023-06-26T02:40:01;18.27;;;7.97;;
51780;SDS011;37844;57.126;24.288;2023-06-26T02:42:45;11.38;;;7.55;;
51780;SDS011;37844;57.126;24.288;2023-06-26T02:45:30;13.88;;;7.57;;
51780;SDS011;37844;57.126;24.288;2023-06-26T02:48:14;11.40;;;8.43;;
51780;SDS011;37844;57.126;24.288;2023-06-26T02:50:58;12.90;;;8.30;;
51780;SDS011;37844;57.126;24.288;2023-06-26T02:53:42;16.73;;;7.50;;
51780;SDS011;37844;57.126;24.288;2023-06-26T02:56:26;13.52;;;8.40;;
51780;SDS011;37844;57.126;24.288;2023-06-26T02:59:14;12.55;;;7.28;;
51780;SDS011;37844;57.126;24.288;2023-06-26T03:01:58;11.75;;;7.57;;
51780;SDS011;37844;57.126;24.288;2023-06-26T03:04:42;11.85;;;8.23;;
51780;SDS011;37844;57.126;24.288;2023-06-26T03:07:26;9.70;;;7.22;;
51780;SDS011;37844;57.126;24.288;2023-06-26T03:10:11;11.80;;;7.03;;
51780;SDS011;37844;57.126;24.288;2023-06-26T03:12:55;11.20;;;7.35;;
51780;SDS011;37844;57.126;24.288;2023-06-26T03:15:38;9.80;;;6.45;;
51780;SDS011;37844;57.126;24.288;2023-06-26T03:18:22;13.95;;;6.82;;
51780;SDS011;37844;57.126;24.288;2023-06-26T03:21:06;12.02;;;7.75;;
51780;SDS011;37844;57.126;24.288;2023-06-26T03:23:52;13.48;;;6.32;;
51780;SDS011;37844;57.126;24.288;2023-06-26T03:26:36;12.70;;;6.25;;
51780;SDS011;37844;57.126;24.288;2023-06-26T03:29:21;13.27;;;7.15;;
51780;SDS011;37844;57.126;24.288;2023-06-26T03:32:05;15.23;;;7.10;;
51780;SDS011;37844;57.126;24.288;2023-06-26T03:34:49;31.15;;;6.93;;
51780;SDS011;37844;57.126;24.288;2023-06-26T03:37:33;17.08;;;6.70;;
51780;SDS011;37844;57.126;24.288;2023-06-26T03:40:17;11.75;;;6.10;;
51780;SDS011;37844;57.126;24.288;2023-06-26T03:43:01;24.42;;;5.53;;
51780;SDS011;37844;57.126;24.288;2023-06-26T03:45:45;16.60;;;6.03;;
51780;SDS011;37844;57.126;24.288;2023-06-26T03:48:30;13.40;;;6.32;;
51780;SDS011;37844;57.126;24.288;2023-06-26T03:51:14;16.38;;;5.07;;
51780;SDS011;37844;57.126;24.288;2023-06-26T03:53:58;8.75;;;5.50;;
51780;SDS011;37844;57.126;24.288;2023-06-26T03:56:42;9.02;;;5.47;;
51780;SDS011;37844;57.126;24.288;2023-06-26T03:59:26;8.00;;;4.53;;
51780;SDS011;37844;57.126;24.288;2023-06-26T04:02:10;7.60;;;4.63;;
51780;SDS011;37844;57.126;24.288;2023-06-26T04:04:56;10.07;;;4.18;;
51780;SDS011;37844;57.126;24.288;2023-06-26T04:07:40;9.30;;;5.18;;
51780;SDS011;37844;57.126;24.288;2023-06-26T04:10:24;8.18;;;4.03;;
51780;SDS011;37844;57.126;24.288;2023-06-26T04:13:08;12.98;;;5.38;;
51780;SDS011;37844;57.126;24.288;2023-06-26T04:15:53;6.85;;;4.15;;
51780;SDS011;37844;57.126;24.288;2023-06-26T04:18:37;7.20;;;4.35;;
51780;SDS011;37844;57.126;24.288;2023-06-26T04:21:35;6.55;;;4.30;;
51780;SDS011;37844;57.126;24.288;2023-06-26T04:24:19;9.82;;;5.63;;
51780;SDS011;37844;57.126;24.288;2023-06-26T04:27:03;8.50;;;5.63;;
51780;SDS011;37844;57.126;24.288;2023-06-26T04:29:49;12.90;;;6.32;;
51780;SDS011;37844;57.126;24.288;2023-06-26T04:32:34;10.75;;;3.88;;
51780;SDS011;37844;57.126;24.288;2023-06-26T04:35:18;9.75;;;3.60;;
51780;SDS011;37844;57.126;24.288;2023-06-26T04:38:03;6.05;;;3.00;;
51780;SDS011;37844;57.126;24.288;2023-06-26T04:40:48;6.25;;;2.88;;
51780;SDS011;37844;57.126;24.288;2023-06-26T04:43:33;4.47;;;2.42;;
51780;SDS011;37844;57.126;24.288;2023-06-26T04:46:17;7.32;;;2.80;;
51780;SDS011;37844;57.126;24.288;2023-06-26T04:49:01;7.90;;;3.20;;
51780;SDS011;37844;57.126;24.288;2023-06-26T04:51:47;3.05;;;2.03;;
51780;SDS011;37844;57.126;24.288;2023-06-26T04:54:38;4.93;;;2.90;;
51780;SDS011;37844;57.126;24.288;2023-06-26T04:57:29;4.57;;;2.42;;
51780;SDS011;37844;57.126;24.288;2023-06-26T05:00:20;7.10;;;2.53;;
51780;SDS011;37844;57.126;24.288;2023-06-26T05:03:04;11.57;;;3.22;;
51780;SDS011;37844;57.126;24.288;2023-06-26T05:05:48;10.55;;;2.78;;
51780;SDS011;37844;57.126;24.288;2023-06-26T05:08:33;3.75;;;2.35;;
51780;SDS011;37844;57.126;24.288;2023-06-26T05:11:21;5.22;;;2.47;;
51780;SDS011;37844;57.126;24.288;2023-06-26T05:14:05;3.15;;;2.05;;
51780;SDS011;37844;57.126;24.288;2023-06-26T05:16:53;3.58;;;2.13;;
51780;SDS011;37844;57.126;24.288;2023-06-26T05:19:37;5.95;;;2.20;;
51780;SDS011;37844;57.126;24.288;2023-06-26T05:22:22;4.30;;;2.30;;
51780;SDS011;37844;57.126;24.288;2023-06-26T05:25:08;6.97;;;2.70;;
51780;SDS011;37844;57.126;24.288;2023-06-26T05:27:53;4.03;;;2.55;;
51780;SDS011;37844;57.126;24.288;2023-06-26T05:30:37;3.92;;;2.38;;
51780;SDS011;37844;57.126;24.288;2023-06-26T05:33:23;5.03;;;2.90;;
51780;SDS011;37844;57.126;24.288;2023-06-26T05:36:07;3.22;;;1.80;;
51780;SDS011;37844;57.126;24.288;2023-06-26T05:38:53;3.40;;;1.85;;
51780;SDS011;37844;57.126;24.288;2023-06-26T05:41:38;5.13;;;2.45;;
51780;SDS011;37844;57.126;24.288;2023-06-26T05:44:23;6.43;;;2.33;;
51780;SDS011;37844;57.126;24.288;2023-06-26T05:47:07;2.53;;;1.60;;
51780;SDS011;37844;57.126;24.288;2023-06-26T05:49:54;5.57;;;1.85;;
51780;SDS011;37844;57.126;24.288;2023-06-26T05:52:38;2.72;;;1.75;;
51780;SDS011;37844;57.126;24.288;2023-06-26T05:55:22;8.10;;;2.20;;
51780;SDS011;37844;57.126;24.288;2023-06-26T05:58:06;2.50;;;1.67;;
51780;SDS011;37844;57.126;24.288;2023-06-26T06:00:51;4.75;;;2.17;;
51780;SDS011;37844;57.126;24.288;2023-06-26T06:03:35;2.92;;;1.88;;
51780;SDS011;37844;57.126;24.288;2023-06-26T06:06:19;4.70;;;2.10;;
51780;SDS011;37844;57.126;24.288;2023-06-26T06:09:04;3.42;;;1.83;;
51780;SDS011;37844;57.126;24.288;2023-06-26T06:11:48;5.10;;;1.75;;
51780;SDS011;37844;57.126;24.288;2023-06-26T06:14:32;2.70;;;1.83;;
51780;SDS011;37844;57.126;24.288;2023-06-26T06:17:19;4.60;;;2.00;;
51780;SDS011;37844;57.126;24.288;2023-06-26T06:20:04;5.57;;;2.15;;
51780;SDS011;37844;57.126;24.288;2023-06-26T06:22:49;2.63;;;1.67;;
51780;SDS011;37844;57.126;24.288;2023-06-26T06:25:33;3.10;;;1.60;;
51780;SDS011;37844;57.126;24.288;2023-06-26T06:28:17;4.82;;;1.52;;
51780;SDS011;37844;57.126;24.288;2023-06-26T06:31:01;4.07;;;1.70;;
51780;SDS011;37844;57.126;24.288;2023-06-26T06:33:46;1.13;;;1.00;;
51780;SDS011;37844;57.126;24.288;2023-06-26T06:36:30;3.67;;;1.52;;
51780;SDS011;37844;57.126;24.288;2023-06-26T06:39:14;1.88;;;1.27;;
51780;SDS011;37844;57.126;24.288;2023-06-26T06:41:58;7.20;;;1.60;;
51780;SDS011;37844;57.126;24.288;2023-06-26T06:44:42;3.42;;;1.45;;
51780;SDS011;37844;57.126;24.288;2023-06-26T06:47:26;2.53;;;1.48;;
51780;SDS011;37844;57.126;24.288;2023-06-26T06:50:10;4.22;;;1.65;;
51780;SDS011;37844;57.126;24.288;2023-06-26T06:52:54;5.20;;;2.05;;
51780;SDS011;37844;57.126;24.288;2023-06-26T06:55:39;3.67;;;1.92;;
51780;SDS011;37844;57.126;24.288;2023-06-26T06:58:23;5.15;;;2.08;;
51780;SDS011;37844;57.126;24.288;2023-06-26T07:01:07;6.80;;;1.80;;
51780;SDS011;37844;57.126;24.288;2023-06-26T07:03:51;5.65;;;2.47;;
51780;SDS011;37844;57.126;24.288;2023-06-26T07:06:35;2.63;;;1.80;;
51780;SDS011;37844;57.126;24.288;2023-06-26T07:09:19;2.45;;;1.55;;
51780;SDS011;37844;57.126;24.288;2023-06-26T07:12:04;10.27;;;2.35;;
51780;SDS011;37844;57.126;24.288;2023-06-26T07:14:49;3.83;;;2.38;;
51780;SDS011;37844;57.126;24.288;2023-06-26T07:17:33;2.40;;;1.58;;
51780;SDS011;37844;57.126;24.288;2023-06-26T07:20:17;3.28;;;1.85;;
51780;SDS011;37844;57.126;24.288;2023-06-26T07:23:01;3.00;;;1.70;;
51780;SDS011;37844;57.126;24.288;2023-06-26T07:25:45;3.47;;;1.90;;
51780;SDS011;37844;57.126;24.288;2023-06-26T07:28:30;7.22;;;2.05;;
51780;SDS011;37844;57.126;24.288;2023-06-26T07:31:14;4.72;;;2.05;;
51780;SDS011;37844;57.126;24.288;2023-06-26T07:34:00;2.83;;;1.63;;
51780;SDS011;37844;57.126;24.288;2023-06-26T07:36:45;5.55;;;1.75;;
51780;SDS011;37844;57.126;24.288;2023-06-26T07:39:29;3.63;;;1.95;;
51780;SDS011;37844;57.126;24.288;2023-06-26T07:42:14;5.40;;;1.77;;
51780;SDS011;37844;57.126;24.288;2023-06-26T07:44:58;8.70;;;1.70;;
51780;SDS011;37844;57.126;24.288;2023-06-26T07:47:43;1.33;;;1.23;;
51780;SDS011;37844;57.126;24.288;2023-06-26T07:50:28;3.50;;;1.70;;
51780;SDS011;37844;57.126;24.288;2023-06-26T07:53:12;2.05;;;1.63;;
51780;SDS011;37844;57.126;24.288;2023-06-26T07:55:56;1.45;;;1.25;;
51780;SDS011;37844;57.126;24.288;2023-06-26T07:58:40;2.97;;;1.98;;
51780;SDS011;37844;57.126;24.288;2023-06-26T08:01:24;2.08;;;1.40;;
51780;SDS011;37844;57.126;24.288;2023-06-26T08:04:08;6.05;;;1.30;;
51780;SDS011;37844;57.126;24.288;2023-06-26T08:06:56;7.93;;;1.45;;
51780;SDS011;37844;57.126;24.288;2023-06-26T08:09:42;6.88;;;1.60;;
51780;SDS011;37844;57.126;24.288;2023-06-26T08:12:26;3.45;;;1.40;;
51780;SDS011;37844;57.126;24.288;2023-06-26T08:15:10;2.00;;;1.38;;
51780;SDS011;37844;57.126;24.288;2023-06-26T08:17:54;2.15;;;1.52;;
51780;SDS011;37844;57.126;24.288;2023-06-26T08:20:39;5.28;;;1.77;;
51780;SDS011;37844;57.126;24.288;2023-06-26T08:23:23;2.90;;;1.50;;
51780;SDS011;37844;57.126;24.288;2023-06-26T08:26:08;3.70;;;1.63;;
51780;SDS011;37844;57.126;24.288;2023-06-26T08:28:52;5.85;;;2.67;;
51780;SDS011;37844;57.126;24.288;2023-06-26T08:31:36;4.13;;;2.50;;
51780;SDS011;37844;57.126;24.288;2023-06-26T08:34:21;4.93;;;2.47;;
51780;SDS011;37844;57.126;24.288;2023-06-26T08:37:05;3.13;;;1.67;;
51780;SDS011;37844;57.126;24.288;2023-06-26T08:39:49;6.20;;;3.17;;
51780;SDS011;37844;57.126;24.288;2023-06-26T08:42:33;2.10;;;1.27;;
51780;SDS011;37844;57.126;24.288;2023-06-26T08:45:18;6.32;;;1.70;;
51780;SDS011;37844;57.126;24.288;2023-06-26T08:48:03;3.83;;;1.55;;
51780;SDS011;37844;57.126;24.288;2023-06-26T08:50:54;12.95;;;2.13;;
51780;SDS011;37844;57.126;24.288;2023-06-26T08:56:44;2.20;;;1.70;;
51780;SDS011;37844;57.126;24.288;2023-06-26T08:59:32;3.75;;;1.40;;
51780;SDS011;37844;57.126;24.288;2023-06-26T09:02:17;2.10;;;1.63;;
51780;SDS011;37844;57.126;24.288;2023-06-26T09:05:01;3.28;;;1.63;;
51780;SDS011;37844;57.126;24.288;2023-06-26T09:07:46;3.53;;;1.60;;
51780;SDS011;37844;57.126;24.288;2023-06-26T09:10:31;7.20;;;2.25;;
51780;SDS011;37844;57.126;24.288;2023-06-26T09:13:16;2.70;;;1.80;;
51780;SDS011;37844;57.126;24.288;2023-06-26T09:16:04;4.28;;;1.90;;
51780;SDS011;37844;57.126;24.288;2023-06-26T09:18:52;4.90;;;1.90;;
51780;SDS011;37844;57.126;24.288;2023-06-26T09:21:39;7.72;;;3.05;;
51780;SDS011;37844;57.126;24.288;2023-06-26T09:24:27;8.48;;;2.03;;
51780;SDS011;37844;57.126;24.288;2023-06-26T09:27:13;10.73;;;1.95;;
51780;SDS011;37844;57.126;24.288;2023-06-26T09:29:57;3.78;;;1.90;;
51780;SDS011;37844;57.126;24.288;2023-06-26T09:32:45;4.38;;;2.30;;
51780;SDS011;37844;57.126;24.288;2023-06-26T09:35:30;4.32;;;1.63;;
51780;SDS011;37844;57.126;24.288;2023-06-26T09:38:15;3.10;;;1.73;;
51780;SDS011;37844;57.126;24.288;2023-06-26T09:41:05;12.32;;;1.70;;
51780;SDS011;37844;57.126;24.288;2023-06-26T09:43:52;5.95;;;2.13;;
51780;SDS011;37844;57.126;24.288;2023-06-26T09:46:44;6.47;;;2.20;;
51780;SDS011;37844;57.126;24.288;2023-06-26T09:49:33;11.10;;;2.42;;
51780;SDS011;37844;57.126;24.288;2023-06-26T09:52:17;2.35;;;1.55;;
51780;SDS011;37844;57.126;24.288;2023-06-26T09:55:09;6.63;;;1.90;;
51780;SDS011;37844;57.126;24.288;2023-06-26T09:58:00;3.03;;;1.75;;
51780;SDS011;37844;57.126;24.288;2023-06-26T10:00:46;8.68;;;1.83;;
51780;SDS011;37844;57.126;24.288;2023-06-26T10:03:31;4.25;;;2.35;;
51780;SDS011;37844;57.126;24.288;2023-06-26T10:06:16;5.72;;;2.88;;
51780;SDS011;37844;57.126;24.288;2023-06-26T10:09:03;5.68;;;2.58;;
51780;SDS011;37844;57.126;24.288;2023-06-26T10:11:51;4.10;;;2.47;;
51780;SDS011;37844;57.126;24.288;2023-06-26T10:14:40;4.47;;;2.08;;
51780;SDS011;37844;57.126;24.288;2023-06-26T10:17:27;4.78;;;2.75;;
51780;SDS011;37844;57.126;24.288;2023-06-26T10:20:13;8.27;;;2.50;;
51780;SDS011;37844;57.126;24.288;2023-06-26T10:22:59;4.90;;;1.88;;
51780;SDS011;37844;57.126;24.288;2023-06-26T10:25:44;3.95;;;2.20;;
51780;SDS011;37844;57.126;24.288;2023-06-26T10:28:32;10.82;;;6.55;;
51780;SDS011;37844;57.126;24.288;2023-06-26T10:31:22;7.43;;;2.75;;
51780;SDS011;37844;57.126;24.288;2023-06-26T10:34:10;7.15;;;2.17;;
51780;SDS011;37844;57.126;24.288;2023-06-26T10:37:02;7.35;;;2.65;;
51780;SDS011;37844;57.126;24.288;2023-06-26T10:39:50;3.80;;;2.10;;
51780;SDS011;37844;57.126;24.288;2023-06-26T10:42:39;6.73;;;2.23;;
51780;SDS011;37844;57.126;24.288;2023-06-26T10:45:27;9.48;;;2.45;;
51780;SDS011;37844;57.126;24.288;2023-06-26T10:48:15;3.35;;;1.88;;
51780;SDS011;37844;57.126;24.288;2023-06-26T10:51:07;3.10;;;2.20;;
51780;SDS011;37844;57.126;24.288;2023-06-26T10:53:57;2.53;;;1.88;;
51780;SDS011;37844;57.126;24.288;2023-06-26T10:56:46;2.72;;;1.75;;
51780;SDS011;37844;57.126;24.288;2023-06-26T10:59:31;5.47;;;2.88;;
51780;SDS011;37844;57.126;24.288;2023-06-26T11:02:15;2.75;;;2.15;;
51780;SDS011;37844;57.126;24.288;2023-06-26T11:05:00;7.80;;;2.33;;
51780;SDS011;37844;57.126;24.288;2023-06-26T11:08:02;16.17;;;10.68;;
51780;SDS011;37844;57.126;24.288;2023-06-26T11:10:50;12.98;;;3.05;;
51780;SDS011;37844;57.126;24.288;2023-06-26T11:13:36;4.28;;;2.22;;
51780;SDS011;37844;57.126;24.288;2023-06-26T11:16:21;3.78;;;2.30;;
51780;SDS011;37844;57.126;24.288;2023-06-26T11:19:04;3.35;;;2.38;;
51780;SDS011;37844;57.126;24.288;2023-06-26T11:21:50;2.95;;;1.73;;
51780;SDS011;37844;57.126;24.288;2023-06-26T11:24:44;4.97;;;2.35;;
51780;SDS011;37844;57.126;24.288;2023-06-26T11:30:23;6.25;;;2.00;;
51780;SDS011;37844;57.126;24.288;2023-06-26T11:33:09;4.85;;;2.40;;
51780;SDS011;37844;57.126;24.288;2023-06-26T11:35:54;10.43;;;2.40;;
51780;SDS011;37844;57.126;24.288;2023-06-26T11:38:39;4.53;;;2.40;;
51780;SDS011;37844;57.126;24.288;2023-06-26T11:41:25;3.97;;;2.38;;
51780;SDS011;37844;57.126;24.288;2023-06-26T11:44:11;3.67;;;2.08;;
51780;SDS011;37844;57.126;24.288;2023-06-26T11:47:00;4.65;;;2.30;;
51780;SDS011;37844;57.126;24.288;2023-06-26T11:49:45;4.93;;;2.13;;
51780;SDS011;37844;57.126;24.288;2023-06-26T11:52:32;4.55;;;2.28;;
51780;SDS011;37844;57.126;24.288;2023-06-26T11:55:17;4.22;;;1.90;;
51780;SDS011;37844;57.126;24.288;2023-06-26T11:58:01;4.72;;;2.03;;
51780;SDS011;37844;57.126;24.288;2023-06-26T12:00:47;4.38;;;2.42;;
51780;SDS011;37844;57.126;24.288;2023-06-26T12:03:31;4.75;;;3.15;;
51780;SDS011;37844;57.126;24.288;2023-06-26T12:06:17;4.30;;;1.95;;
51780;SDS011;37844;57.126;24.288;2023-06-26T12:09:02;4.95;;;2.67;;
51780;SDS011;37844;57.126;24.288;2023-06-26T12:11:51;3.67;;;2.30;;
51780;SDS011;37844;57.126;24.288;2023-06-26T12:14:37;5.10;;;2.70;;
51780;SDS011;37844;57.126;24.288;2023-06-26T12:17:23;3.60;;;1.98;;
51780;SDS011;37844;57.126;24.288;2023-06-26T12:20:23;7.45;;;2.72;;
51780;SDS011;37844;57.126;24.288;2023-06-26T12:23:12;6.87;;;2.40;;
51780;SDS011;37844;57.126;24.288;2023-06-26T12:25:57;2.92;;;2.17;;
51780;SDS011;37844;57.126;24.288;2023-06-26T12:28:41;3.38;;;2.10;;
51780;SDS011;37844;57.126;24.288;2023-06-26T12:31:28;4.38;;;2.75;;
51780;SDS011;37844;57.126;24.288;2023-06-26T12:34:13;3.30;;;2.08;;
51780;SDS011;37844;57.126;24.288;2023-06-26T12:37:05;4.68;;;2.35;;
51780;SDS011;37844;57.126;24.288;2023-06-26T12:39:55;5.25;;;2.22;;
51780;SDS011;37844;57.126;24.288;2023-06-26T12:42:49;4.65;;;2.20;;
51780;SDS011;37844;57.126;24.288;2023-06-26T12:45:37;5.63;;;3.00;;
51780;SDS011;37844;57.126;24.288;2023-06-26T12:48:36;4.33;;;2.43;;
51780;SDS011;37844;57.126;24.288;2023-06-26T12:51:31;8.93;;;2.47;;
51780;SDS011;37844;57.126;24.288;2023-06-26T12:54:21;4.35;;;2.20;;
51780;SDS011;37844;57.126;24.288;2023-06-26T12:57:08;5.30;;;2.40;;
51780;SDS011;37844;57.126;24.288;2023-06-26T12:59:53;3.60;;;2.33;;
51780;SDS011;37844;57.126;24.288;2023-06-26T13:02:37;6.75;;;2.45;;
51780;SDS011;37844;57.126;24.288;2023-06-26T13:05:21;4.47;;;2.70;;
51780;SDS011;37844;57.126;24.288;2023-06-26T13:08:05;9.18;;;2.40;;
51780;SDS011;37844;57.126;24.288;2023-06-26T13:10:49;6.07;;;2.55;;
51780;SDS011;37844;57.126;24.288;2023-06-26T13:13:34;4.55;;;2.70;;
51780;SDS011;37844;57.126;24.288;2023-06-26T13:16:18;8.93;;;2.47;;
51780;SDS011;37844;57.126;24.288;2023-06-26T13:19:02;5.38;;;3.10;;
51780;SDS011;37844;57.126;24.288;2023-06-26T13:21:50;4.20;;;2.55;;
51780;SDS011;37844;57.126;24.288;2023-06-26T13:24:35;4.93;;;2.40;;
51780;SDS011;37844;57.126;24.288;2023-06-26T13:27:19;4.80;;;2.40;;
51780;SDS011;37844;57.126;24.288;2023-06-26T13:30:04;9.73;;;3.30;;
51780;SDS011;37844;57.126;24.288;2023-06-26T13:32:49;4.18;;;2.63;;
51780;SDS011;37844;57.126;24.288;2023-06-26T13:35:33;4.22;;;2.60;;
51780;SDS011;37844;57.126;24.288;2023-06-26T13:38:21;5.70;;;2.53;;
51780;SDS011;37844;57.126;24.288;2023-06-26T13:41:10;7.65;;;2.55;;
51780;SDS011;37844;57.126;24.288;2023-06-26T13:43:54;17.17;;;2.88;;
51780;SDS011;37844;57.126;24.288;2023-06-26T13:46:38;3.80;;;2.13;;
51780;SDS011;37844;57.126;24.288;2023-06-26T13:49:22;4.47;;;2.60;;
51780;SDS011;37844;57.126;24.288;2023-06-26T13:52:06;6.95;;;2.33;;
51780;SDS011;37844;57.126;24.288;2023-06-26T13:54:51;5.78;;;2.85;;
51780;SDS011;37844;57.126;24.288;2023-06-26T13:57:38;10.23;;;2.67;;
51780;SDS011;37844;57.126;24.288;2023-06-26T14:00:24;3.30;;;2.45;;
51780;SDS011;37844;57.126;24.288;2023-06-26T14:03:09;6.68;;;2.65;;
51780;SDS011;37844;57.126;24.288;2023-06-26T14:05:54;5.32;;;3.20;;
51780;SDS011;37844;57.126;24.288;2023-06-26T14:08:39;8.77;;;3.03;;
51780;SDS011;37844;57.126;24.288;2023-06-26T14:11:23;4.10;;;2.50;;
51780;SDS011;37844;57.126;24.288;2023-06-26T14:14:07;5.28;;;2.70;;
51780;SDS011;37844;57.126;24.288;2023-06-26T14:16:51;4.25;;;3.08;;
51780;SDS011;37844;57.126;24.288;2023-06-26T14:19:35;12.43;;;2.45;;
51780;SDS011;37844;57.126;24.288;2023-06-26T14:22:19;4.53;;;2.45;;
51780;SDS011;37844;57.126;24.288;2023-06-26T14:25:03;8.07;;;2.88;;
51780;SDS011;37844;57.126;24.288;2023-06-26T14:27:48;5.10;;;3.00;;
51780;SDS011;37844;57.126;24.288;2023-06-26T14:30:32;8.32;;;2.50;;
51780;SDS011;37844;57.126;24.288;2023-06-26T14:33:15;5.28;;;2.78;;
51780;SDS011;37844;57.126;24.288;2023-06-26T14:36:00;9.75;;;2.97;;
51780;SDS011;37844;57.126;24.288;2023-06-26T14:38:44;5.38;;;2.53;;
51780;SDS011;37844;57.126;24.288;2023-06-26T14:41:29;11.35;;;3.85;;
51780;SDS011;37844;57.126;24.288;2023-06-26T14:44:14;12.50;;;2.75;;
51780;SDS011;37844;57.126;24.288;2023-06-26T14:46:59;5.95;;;2.60;;
51780;SDS011;37844;57.126;24.288;2023-06-26T14:49:43;3.08;;;2.30;;
51780;SDS011;37844;57.126;24.288;2023-06-26T14:52:31;4.03;;;2.47;;
51780;SDS011;37844;57.126;24.288;2023-06-26T14:55:16;11.60;;;4.07;;
51780;SDS011;37844;57.126;24.288;2023-06-26T14:58:00;9.07;;;3.22;;
51780;SDS011;37844;57.126;24.288;2023-06-26T15:01:02;19.33;;;3.95;;
51780;SDS011;37844;57.126;24.288;2023-06-26T15:03:59;10.75;;;4.07;;
51780;SDS011;37844;57.126;24.288;2023-06-26T15:06:43;8.60;;;3.72;;
51780;SDS011;37844;57.126;24.288;2023-06-26T15:09:27;8.25;;;3.92;;
51780;SDS011;37844;57.126;24.288;2023-06-26T15:12:11;7.05;;;3.67;;
51780;SDS011;37844;57.126;24.288;2023-06-26T15:14:55;8.07;;;3.45;;
51780;SDS011;37844;57.126;24.288;2023-06-26T15:17:39;6.68;;;3.50;;
51780;SDS011;37844;57.126;24.288;2023-06-26T15:20:23;8.25;;;4.00;;
51780;SDS011;37844;57.126;24.288;2023-06-26T15:23:07;7.40;;;3.63;;
51780;SDS011;37844;57.126;24.288;2023-06-26T15:25:51;5.43;;;3.25;;
51780;SDS011;37844;57.126;24.288;2023-06-26T15:28:36;5.07;;;2.88;;
51780;SDS011;37844;57.126;24.288;2023-06-26T15:31:20;4.57;;;2.83;;
51780;SDS011;37844;57.126;24.288;2023-06-26T15:34:04;7.38;;;3.13;;
51780;SDS011;37844;57.126;24.288;2023-06-26T15:36:55;7.70;;;3.35;;
51780;SDS011;37844;57.126;24.288;2023-06-26T15:39:46;4.95;;;2.88;;
51780;SDS011;37844;57.126;24.288;2023-06-26T15:42:31;5.63;;;3.00;;
51780;SDS011;37844;57.126;24.288;2023-06-26T15:45:15;14.63;;;4.20;;
51780;SDS011;37844;57.126;24.288;2023-06-26T15:48:05;9.13;;;3.08;;
51780;SDS011;37844;57.126;24.288;2023-06-26T15:50:50;9.70;;;3.05;;
51780;SDS011;37844;57.126;24.288;2023-06-26T15:53:37;22.83;;;3.63;;
51780;SDS011;37844;57.126;24.288;2023-06-26T15:56:22;8.75;;;3.20;;
51780;SDS011;37844;57.126;24.288;2023-06-26T15:59:09;11.55;;;3.45;;
51780;SDS011;37844;57.126;24.288;2023-06-26T16:01:55;6.95;;;3.20;;
51780;SDS011;37844;57.126;24.288;2023-06-26T16:04:41;6.28;;;2.95;;
51780;SDS011;37844;57.126;24.288;2023-06-26T16:07:26;4.40;;;2.75;;
51780;SDS011;37844;57.126;24.288;2023-06-26T16:10:13;5.68;;;2.53;;
51780;SDS011;37844;57.126;24.288;2023-06-26T16:13:01;6.45;;;3.38;;
51780;SDS011;37844;57.126;24.288;2023-06-26T16:15:47;5.70;;;2.80;;
51780;SDS011;37844;57.126;24.288;2023-06-26T16:18:32;5.60;;;2.95;;
51780;SDS011;37844;57.126;24.288;2023-06-26T16:21:16;6.20;;;3.08;;
51780;SDS011;37844;57.126;24.288;2023-06-26T16:24:00;4.22;;;2.30;;
51780;SDS011;37844;57.126;24.288;2023-06-26T16:26:44;9.30;;;4.00;;
51780;SDS011;37844;57.126;24.288;2023-06-26T16:29:28;6.30;;;3.13;;